Terminal Aerodrome Forecast
Issued by NWS Mt. Holly, NJ

Home | Current Version | Previous Version | Text Only | Print | Product List | Glossary On
Versions: 1 2 3 4 5 6 7 8 9 10 11 12 13 14 15 16 17 18 19 20 21 22 23 24 25 26 27 28 29 30 31 32 33 34 35 36 37 38 39 40 41 42 43 44 45 46 47 48 49 50
000
FTUS41 KPHI 271409 AAA
TAFABE
TAF AMD
KABE 271409Z 2714/2812 20008KT P6SM BKN025
      TEMPO 2714/2715 SCT025
     FM271500 21009KT P6SM SCT025
     FM271700 23010G17KT P6SM BKN035
      TEMPO 2720/2722 4SM TSRA OVC030CB
     FM280000 20006KT P6SM SCT100 BKN200
     FM280900 22003KT 4SM BR SCT015=

USA.gov is the U.S. government's official web portal to all federal, state and local government web resources and services.